Time;durP1;ratioP1;P1;durP2;ratioP2;P2;SDS_P1;SDS_P2;PMS_P1;PMS_P2;Temp;Humidity;BMP_temperature;BMP_pressure;BME280_temperature;BME280_humidity;BME280_pressure;Samples;Min_cycle;Max_cycle;Signal;HPM_P1;HPM_P2
2023/09/23 00:00:19;;;;;;;6.03;1.70;;;;;;;;;;5043915;28;20069;-69
2023/09/23 00:03:05;;;;;;;2.83;1.90;;;;;;;;;;5039152;28;20077;-72
2023/09/23 00:05:34;;;;;;;4.68;2.17;;;;;;;;;;5042141;28;20065;-71
2023/09/23 00:08:00;;;;;;;7.35;1.55;;;;;;;;;;5035137;28;20056;-71
2023/09/23 00:10:27;;;;;;;5.78;2.30;;;;;;;;;;5033548;28;20045;-70
2023/09/23 00:12:55;;;;;;;4.75;2.00;;;;;;;;;;5035632;28;20401;-71
2023/09/23 00:15:21;;;;;;;3.88;2.10;;;;;;;;;;5037596;28;23428;-71
2023/09/23 00:17:48;;;;;;;5.45;2.22;;;;;;;;;;5028287;28;20247;-70
2023/09/23 00:20:15;;;;;;;3.33;1.90;;;;;;;;;;5037205;28;20053;-70
2023/09/23 00:22:42;;;;;;;3.17;2.05;;;;;;;;;;5034437;28;20511;-72
2023/09/23 00:25:09;;;;;;;3.40;1.88;;;;;;;;;;5041180;28;20052;-72
2023/09/23 00:27:35;;;;;;;6.15;2.10;;;;;;;;;;5041456;28;20057;-69
2023/09/23 00:30:04;;;;;;;4.70;1.80;;;;;;;;;;5041885;28;20468;-70
2023/09/23 00:32:34;;;;;;;3.17;1.85;;;;;;;;;;5040309;28;20233;-71
2023/09/23 00:35:00;;;;;;;2.17;1.40;;;;;;;;;;5037724;28;20061;-69
2023/09/23 00:37:27;;;;;;;4.15;1.75;;;;;;;;;;5038725;28;20136;-72
2023/09/23 00:39:53;;;;;;;5.28;2.00;;;;;;;;;;5044122;28;20110;-71
2023/09/23 00:42:19;;;;;;;3.72;1.60;;;;;;;;;;5041876;28;21068;-70
2023/09/23 00:44:46;;;;;;;3.10;1.60;;;;;;;;;;5038285;28;20045;-69
2023/09/23 00:47:15;;;;;;;6.10;1.70;;;;;;;;;;5038968;28;20382;-71
2023/09/23 00:49:44;;;;;;;4.35;1.67;;;;;;;;;;5041193;28;20044;-69
2023/09/23 00:52:14;;;;;;;4.75;1.70;;;;;;;;;;5036663;28;20493;-71
2023/09/23 00:54:46;;;;;;;5.53;1.75;;;;;;;;;;5040002;28;20398;-70
2023/09/23 00:57:13;;;;;;;5.90;1.90;;;;;;;;;;5039871;28;20071;-69
2023/09/23 00:59:40;;;;;;;5.18;1.45;;;;;;;;;;5041912;28;20057;-70
2023/09/23 01:02:06;;;;;;;3.35;1.35;;;;;;;;;;5035200;28;20053;-69
2023/09/23 01:04:33;;;;;;;3.80;1.40;;;;;;;;;;5042447;28;20061;-70
2023/09/23 01:07:02;;;;;;;5.75;1.58;;;;;;;;;;5041845;28;20493;-70
2023/09/23 01:09:31;;;;;;;4.25;1.50;;;;;;;;;;5038829;28;20894;-70
2023/09/23 01:11:57;;;;;;;3.65;1.48;;;;;;;;;;5033868;28;20409;-69
2023/09/23 01:14:23;;;;;;;2.45;1.30;;;;;;;;;;5031948;28;20434;-70
2023/09/23 01:16:49;;;;;;;7.50;1.55;;;;;;;;;;5037358;28;20041;-71
2023/09/23 01:19:18;;;;;;;4.28;1.73;;;;;;;;;;5031545;28;20041;-70
2023/09/23 01:21:48;;;;;;;6.28;1.70;;;;;;;;;;5035532;28;20144;-69
2023/09/23 01:24:18;;;;;;;4.90;1.50;;;;;;;;;;5039239;28;21742;-70
2023/09/23 01:26:52;;;;;;;2.95;1.52;;;;;;;;;;5038899;28;20152;-70
2023/09/23 01:29:22;;;;;;;;;;;;;;;;;;5037732;28;20049;-70
2023/09/23 01:32:25;;;;;;;2.78;1.13;;;;;;;;;;5036028;28;20305;-70
2023/09/23 01:34:52;;;;;;;6.25;1.67;;;;;;;;;;5031722;28;20045;-70
2023/09/23 01:37:18;;;;;;;3.53;1.58;;;;;;;;;;5038587;28;20562;-68
2023/09/23 01:39:47;;;;;;;7.43;1.80;;;;;;;;;;5035945;28;20452;-69
2023/09/23 01:42:14;;;;;;;3.92;1.88;;;;;;;;;;5041084;28;20068;-70
2023/09/23 01:44:41;;;;;;;5.15;1.88;;;;;;;;;;5035902;28;20084;-70
2023/09/23 01:47:08;;;;;;;12.80;2.03;;;;;;;;;;5040532;28;20052;-69
2023/09/23 01:49:34;;;;;;;5.47;1.75;;;;;;;;;;5036902;28;20049;-69
2023/09/23 01:52:02;;;;;;;3.72;1.90;;;;;;;;;;5035776;28;20060;-71
2023/09/23 01:54:28;;;;;;;4.55;1.92;;;;;;;;;;5033847;28;20045;-70
2023/09/23 01:56:57;;;;;;;3.25;1.70;;;;;;;;;;5036572;28;20048;-69
2023/09/23 01:59:23;;;;;;;5.88;1.48;;;;;;;;;;5035054;28;20061;-71
2023/09/23 02:01:49;;;;;;;3.15;1.50;;;;;;;;;;5033749;28;20055;-69
2023/09/23 02:04:15;;;;;;;3.75;1.38;;;;;;;;;;5040204;28;20056;-70
2023/09/23 02:06:42;;;;;;;2.97;1.45;;;;;;;;;;5037217;28;21964;-69
2023/09/23 02:09:10;;;;;;;4.28;1.30;;;;;;;;;;5034140;28;20908;-71
2023/09/23 02:11:37;;;;;;;9.32;1.48;;;;;;;;;;5036207;28;20562;-72
2023/09/23 02:14:06;;;;;;;6.00;1.40;;;;;;;;;;5033954;28;20057;-72
2023/09/23 02:16:34;;;;;;;2.70;1.30;;;;;;;;;;5031724;28;20162;-71
2023/09/23 02:19:02;;;;;;;2.90;1.35;;;;;;;;;;5036093;28;20043;-70
2023/09/23 02:21:30;;;;;;;1.92;1.00;;;;;;;;;;5036588;28;20059;-71
2023/09/23 02:23:56;;;;;;;2.65;1.13;;;;;;;;;;5036282;28;20397;-71
2023/09/23 02:26:24;;;;;;;4.25;1.10;;;;;;;;;;5040518;28;20057;-70
2023/09/23 02:28:51;;;;;;;2.28;1.17;;;;;;;;;;5035518;28;20507;-70
2023/09/23 02:31:19;;;;;;;2.13;1.10;;;;;;;;;;5036977;28;20049;-71
2023/09/23 02:33:45;;;;;;;11.73;1.55;;;;;;;;;;5035795;28;20461;-70
2023/09/23 02:36:14;;;;;;;2.58;1.10;;;;;;;;;;5038222;28;20056;-69
2023/09/23 02:38:43;;;;;;;2.45;1.00;;;;;;;;;;5033652;28;20053;-68
2023/09/23 02:41:08;;;;;;;2.65;1.05;;;;;;;;;;5036335;28;20140;-70
2023/09/23 02:43:35;;;;;;;2.17;0.90;;;;;;;;;;5032555;28;20075;-69
2023/09/23 02:46:01;;;;;;;2.45;0.98;;;;;;;;;;5032801;28;20409;-70
2023/09/23 02:48:29;;;;;;;2.85;1.10;;;;;;;;;;5030335;28;20390;-69
2023/09/23 02:51:00;;;;;;;2.78;1.10;;;;;;;;;;5037274;28;20079;-69
2023/09/23 02:53:27;;;;;;;3.00;1.30;;;;;;;;;;5044002;28;20049;-70
2023/09/23 02:56:19;;;;;;;5.40;1.27;;;;;;;;;;5041788;28;20132;-70
2023/09/23 02:58:47;;;;;;;3.97;1.15;;;;;;;;;;5039497;28;20048;-70
2023/09/23 03:01:14;;;;;;;3.42;1.40;;;;;;;;;;5041308;28;20060;-69
2023/09/23 03:03:41;;;;;;;1.77;0.95;;;;;;;;;;5036801;28;20065;-70
2023/09/23 03:06:07;;;;;;;2.15;1.00;;;;;;;;;;5036876;28;20055;-69
2023/09/23 03:08:37;;;;;;;4.75;1.10;;;;;;;;;;5033234;28;20574;-69
2023/09/23 03:11:06;;;;;;;4.63;1.10;;;;;;;;;;5035207;28;20053;-71
2023/09/23 03:13:34;;;;;;;3.78;1.50;;;;;;;;;;5041346;28;20050;-70
2023/09/23 03:16:10;;;;;;;2.33;1.02;;;;;;;;;;5044779;28;20064;-69
2023/09/23 03:18:44;;;;;;;4.85;1.13;;;;;;;;;;5043669;28;20459;-70
2023/09/23 03:21:10;;;;;;;2.00;1.20;;;;;;;;;;5035835;28;20076;-71
2023/09/23 03:23:39;;;;;;;2.20;1.17;;;;;;;;;;5046227;28;20301;-70
2023/09/23 03:26:09;;;;;;;3.05;1.20;;;;;;;;;;5038661;28;20542;-69
2023/09/23 03:28:40;;;;;;;3.35;1.20;;;;;;;;;;5035572;28;20049;-68
2023/09/23 03:31:08;;;;;;;2.50;1.30;;;;;;;;;;5036756;28;20068;-71
2023/09/23 03:33:37;;;;;;;2.47;1.30;;;;;;;;;;5042926;28;20049;-70
2023/09/23 03:36:08;;;;;;;4.88;2.13;;;;;;;;;;5048562;28;20144;-68
2023/09/23 03:38:35;;;;;;;5.47;2.45;;;;;;;;;;5041632;28;20045;-69
2023/09/23 03:41:02;;;;;;;6.57;2.65;;;;;;;;;;5037170;28;20048;-73
2023/09/23 03:43:29;;;;;;;5.47;2.30;;;;;;;;;;5041906;28;20526;-69
2023/09/23 03:45:55;;;;;;;5.30;2.50;;;;;;;;;;5035261;28;20060;-69
2023/09/23 03:48:22;;;;;;;5.72;2.35;;;;;;;;;;5034925;28;20229;-69
2023/09/23 03:50:55;;;;;;;5.32;2.25;;;;;;;;;;5038038;28;20187;-69
2023/09/23 03:53:22;;;;;;;3.67;1.98;;;;;;;;;;5036569;28;20069;-72
2023/09/23 03:55:53;;;;;;;5.22;1.95;;;;;;;;;;5034882;28;20045;-69
2023/09/23 03:58:19;;;;;;;9.77;2.22;;;;;;;;;;5041361;28;20387;-71
2023/09/23 04:00:45;;;;;;;3.65;1.90;;;;;;;;;;5041709;28;20049;-70
2023/09/23 04:03:17;;;;;;;2.60;1.42;;;;;;;;;;5036579;28;20049;-70
2023/09/23 04:05:44;;;;;;;2.60;1.60;;;;;;;;;;5040293;28;20079;-69
2023/09/23 04:08:10;;;;;;;3.13;1.48;;;;;;;;;;5038265;28;20053;-69
2023/09/23 04:10:39;;;;;;;3.55;1.58;;;;;;;;;;5041499;28;20045;-70
2023/09/23 04:13:06;;;;;;;4.40;1.35;;;;;;;;;;5038923;28;20544;-70
2023/09/23 04:15:32;;;;;;;2.97;1.23;;;;;;;;;;5044234;28;20340;-69
2023/09/23 04:18:04;;;;;;;2.28;1.05;;;;;;;;;;5046764;28;20056;-71
2023/09/23 04:20:31;;;;;;;2.83;1.50;;;;;;;;;;5037859;28;20041;-70
2023/09/23 04:22:58;;;;;;;3.80;1.20;;;;;;;;;;5047026;28;20053;-70
2023/09/23 04:25:24;;;;;;;2.63;1.10;;;;;;;;;;5041494;28;20049;-69
2023/09/23 04:27:50;;;;;;;3.08;1.10;;;;;;;;;;5034798;28;20060;-69
2023/09/23 04:30:17;;;;;;;1.55;0.82;;;;;;;;;;5038142;28;20401;-70
2023/09/23 04:32:43;;;;;;;3.63;1.10;;;;;;;;;;5039860;28;20277;-69
2023/09/23 04:35:17;;;;;;;1.65;0.80;;;;;;;;;;5042449;28;20045;-70
2023/09/23 04:37:43;;;;;;;;;;;;;;;;;;5041294;28;20094;-69
2023/09/23 04:40:11;;;;;;;2.92;1.00;;;;;;;;;;5043164;28;19920;-69
2023/09/23 04:42:39;;;;;;;2.15;1.30;;;;;;;;;;5034705;28;20064;-69
2023/09/23 04:45:06;;;;;;;5.00;1.20;;;;;;;;;;5041670;28;20477;-70
2023/09/23 04:47:32;;;;;;;3.20;1.00;;;;;;;;;;5041926;28;20106;-69
2023/09/23 04:50:00;;;;;;;4.32;1.33;;;;;;;;;;5034841;28;20037;-71
2023/09/23 04:52:28;;;;;;;2.22;1.05;;;;;;;;;;5041255;28;20049;-71
2023/09/23 04:54:55;;;;;;;3.47;1.23;;;;;;;;;;5033869;28;20045;-70
2023/09/23 04:57:22;;;;;;;3.70;2.05;;;;;;;;;;5037978;28;20053;-69
2023/09/23 04:59:48;;;;;;;6.68;1.92;;;;;;;;;;5043903;28;20049;-72
2023/09/23 05:02:17;;;;;;;5.43;1.60;;;;;;;;;;5041644;28;20048;-69
2023/09/23 05:04:46;;;;;;;5.00;1.20;;;;;;;;;;5041951;28;20037;-69
2023/09/23 05:07:14;;;;;;;2.17;1.10;;;;;;;;;;5038395;28;20280;-70
2023/09/23 05:09:41;;;;;;;6.88;1.20;;;;;;;;;;5042601;28;20493;-70
2023/09/23 05:12:11;;;;;;;3.50;1.40;;;;;;;;;;5046961;28;20056;-71
2023/09/23 05:14:39;;;;;;;2.47;1.35;;;;;;;;;;5036136;28;20505;-69
2023/09/23 05:17:14;;;;;;;3.28;1.20;;;;;;;;;;5043900;28;20059;-69
2023/09/23 05:19:40;;;;;;;4.68;1.42;;;;;;;;;;5041859;28;20045;-71
2023/09/23 05:22:08;;;;;;;3.00;1.20;;;;;;;;;;5041162;28;20064;-70
2023/09/23 05:24:34;;;;;;;4.88;1.05;;;;;;;;;;5042852;28;20160;-70
2023/09/23 05:27:00;;;;;;;4.47;1.00;;;;;;;;;;5035168;28;20048;-71
2023/09/23 05:29:27;;;;;;;5.50;1.58;;;;;;;;;;5035578;28;20057;-70
2023/09/23 05:31:53;;;;;;;5.80;1.30;;;;;;;;;;5038306;28;20372;-70
2023/09/23 05:34:20;;;;;;;5.38;1.27;;;;;;;;;;5035677;28;20068;-70
2023/09/23 05:36:49;;;;;;;7.40;1.00;;;;;;;;;;5045664;28;20045;-71
2023/09/23 05:39:19;;;;;;;3.50;1.10;;;;;;;;;;5041967;28;20053;-70
2023/09/23 05:41:51;;;;;;;5.30;1.75;;;;;;;;;;5042092;28;20059;-69
2023/09/23 05:44:18;;;;;;;3.97;1.40;;;;;;;;;;5041680;28;20262;-69
2023/09/23 05:46:45;;;;;;;4.60;1.33;;;;;;;;;;5042742;28;20068;-71
2023/09/23 05:49:12;;;;;;;6.13;1.38;;;;;;;;;;5040848;28;20060;-69
2023/09/23 05:51:38;;;;;;;3.78;1.10;;;;;;;;;;5042895;28;20069;-71
2023/09/23 05:54:05;;;;;;;2.38;1.05;;;;;;;;;;5045364;28;20176;-69
2023/09/23 05:56:31;;;;;;;7.22;1.50;;;;;;;;;;5039551;28;20049;-71
2023/09/23 05:58:57;;;;;;;16.67;8.80;;;;;;;;;;5040465;28;20045;-71
2023/09/23 06:01:23;;;;;;;15.68;1.83;;;;;;;;;;5037209;28;20048;-72
2023/09/23 06:03:50;;;;;;;9.07;1.40;;;;;;;;;;5039526;28;20047;-70
2023/09/23 06:06:18;;;;;;;4.43;1.40;;;;;;;;;;5036717;28;20041;-70
2023/09/23 06:08:47;;;;;;;4.65;1.38;;;;;;;;;;5043145;28;20379;-70
2023/09/23 06:11:14;;;;;;;9.30;1.80;;;;;;;;;;5038484;28;20056;-70
2023/09/23 06:13:41;;;;;;;4.78;1.42;;;;;;;;;;5035340;28;20322;-69
2023/09/23 06:16:10;;;;;;;4.65;1.33;;;;;;;;;;5035305;28;20350;-77
2023/09/23 06:18:36;;;;;;;4.07;1.75;;;;;;;;;;5045078;28;20053;-73
2023/09/23 06:21:08;;;;;;;2.75;1.40;;;;;;;;;;5043728;28;20527;-72
2023/09/23 06:23:34;;;;;;;2.72;1.08;;;;;;;;;;5029677;28;20041;-72
2023/09/23 06:26:02;;;;;;;2.78;1.20;;;;;;;;;;5031149;28;20062;-71
2023/09/23 06:28:32;;;;;;;4.13;1.00;;;;;;;;;;5032971;28;20139;-76
2023/09/23 06:31:01;;;;;;;4.18;1.15;;;;;;;;;;5038168;28;20073;-77
2023/09/23 06:33:28;;;;;;;2.53;1.10;;;;;;;;;;5029469;28;20103;-74
2023/09/23 06:35:55;;;;;;;3.10;1.00;;;;;;;;;;5032396;28;20106;-78
2023/09/23 06:38:21;;;;;;;4.97;0.88;;;;;;;;;;5023535;28;20057;-67
2023/09/23 06:40:54;;;;;;;3.55;1.10;;;;;;;;;;5029030;28;20356;-67
2023/09/23 06:43:20;;;;;;;2.33;1.15;;;;;;;;;;5024424;28;20531;-67
2023/09/23 06:45:58;;;;;;;4.35;1.30;;;;;;;;;;5027158;28;20509;-70
2023/09/23 06:48:24;;;;;;;3.55;1.08;;;;;;;;;;5021076;28;20052;-69
2023/09/23 06:50:57;;;;;;;2.75;1.52;;;;;;;;;;5021668;28;20048;-69
2023/09/23 06:53:23;;;;;;;5.82;1.45;;;;;;;;;;5020173;28;20049;-70
2023/09/23 06:55:50;;;;;;;3.97;1.23;;;;;;;;;;5025424;28;20041;-67
2023/09/23 06:58:16;;;;;;;4.03;1.27;;;;;;;;;;5027275;28;20060;-72
2023/09/23 07:00:43;;;;;;;2.08;1.27;;;;;;;;;;5025273;28;20231;-69
2023/09/23 07:03:09;;;;;;;3.75;1.25;;;;;;;;;;5023497;28;20049;-71
2023/09/23 07:05:35;;;;;;;3.47;1.25;;;;;;;;;;5024659;28;20552;-70
2023/09/23 07:08:01;;;;;;;6.95;1.20;;;;;;;;;;5019843;28;20179;-71
2023/09/23 07:10:27;;;;;;;8.30;4.20;;;;;;;;;;5023356;28;20052;-70
2023/09/23 07:13:34;;;;;;;16.65;9.27;;;;;;;;;;5020164;28;20056;-71
2023/09/23 07:17:15;;;;;;;2.70;1.50;;;;;;;;;;5024117;28;20103;-69
2023/09/23 07:20:55;;;;;;;6.10;1.60;;;;;;;;;;5025816;28;20417;-69
2023/09/23 07:24:35;;;;;;;6.50;1.45;;;;;;;;;;5023947;28;20536;-71
2023/09/23 07:28:18;;;;;;;7.93;1.50;;;;;;;;;;5033158;28;20861;-70
2023/09/23 07:31:58;;;;;;;6.68;1.55;;;;;;;;;;5030156;28;20132;-73
2023/09/23 07:35:39;;;;;;;4.15;1.30;;;;;;;;;;5030744;28;20049;-74
2023/09/23 07:39:19;;;;;;;8.00;2.20;;;;;;;;;;5030365;28;20055;-71
2023/09/23 07:42:59;;;;;;;10.88;1.60;;;;;;;;;;5026187;28;20059;-69
2023/09/23 07:46:40;;;;;;;12.40;1.75;;;;;;;;;;5031021;28;20068;-70
2023/09/23 07:50:21;;;;;;;8.60;2.40;;;;;;;;;;5027087;28;20072;-70
2023/09/23 07:54:02;;;;;;;8.77;2.15;;;;;;;;;;5027489;28;20056;-71
2023/09/23 07:57:42;;;;;;;7.65;2.20;;;;;;;;;;5036788;28;20111;-71
2023/09/23 08:01:24;;;;;;;4.57;1.95;;;;;;;;;;5030121;28;20053;-72
2023/09/23 08:05:09;;;;;;;4.80;1.85;;;;;;;;;;5032676;28;20097;-71
2023/09/23 08:08:49;;;;;;;3.65;1.30;;;;;;;;;;5030537;28;20064;-70
2023/09/23 08:12:30;;;;;;;5.53;1.52;;;;;;;;;;5027308;28;20052;-71
2023/09/23 08:16:11;;;;;;;3.78;1.70;;;;;;;;;;5027599;28;20386;-70
2023/09/23 08:19:53;;;;;;;6.38;1.67;;;;;;;;;;5028087;28;20049;-71
2023/09/23 08:23:32;;;;;;;4.45;2.05;;;;;;;;;;5030201;28;20095;-71
2023/09/23 08:27:12;;;;;;;5.30;1.65;;;;;;;;;;5028838;28;20057;-70
2023/09/23 08:30:53;;;;;;;6.80;1.90;;;;;;;;;;5028262;28;20048;-69
2023/09/23 08:34:33;;;;;;;4.20;1.27;;;;;;;;;;5028126;28;20049;-72
2023/09/23 08:38:14;;;;;;;3.17;1.40;;;;;;;;;;5031038;28;20079;-72
2023/09/23 08:41:54;;;;;;;5.72;1.17;;;;;;;;;;5028474;28;20384;-71
2023/09/23 08:45:34;;;;;;;6.25;1.50;;;;;;;;;;5035251;28;20100;-71
2023/09/23 08:49:14;;;;;;;5.40;1.42;;;;;;;;;;5039238;28;20090;-70
2023/09/23 08:52:58;;;;;;;3.83;1.35;;;;;;;;;;5028518;28;20397;-71
2023/09/23 08:56:38;;;;;;;4.70;1.27;;;;;;;;;;5035150;28;20064;-70
2023/09/23 09:00:20;;;;;;;6.13;1.30;;;;;;;;;;5033999;28;20473;-71
2023/09/23 09:03:59;;;;;;;8.88;1.60;;;;;;;;;;5026118;28;21933;-71
2023/09/23 09:07:39;;;;;;;9.00;2.05;;;;;;;;;;5031642;28;20081;-70
2023/09/23 09:11:21;;;;;;;8.77;1.85;;;;;;;;;;5032195;28;20061;-69
2023/09/23 09:15:01;;;;;;;7.43;1.60;;;;;;;;;;5031300;28;20065;-73
2023/09/23 09:18:42;;;;;;;5.25;1.30;;;;;;;;;;5030634;28;21115;-71
2023/09/23 09:22:22;;;;;;;3.97;1.58;;;;;;;;;;5029135;28;20458;-70
2023/09/23 09:26:02;;;;;;;7.60;1.20;;;;;;;;;;5032842;28;20068;-70
2023/09/23 09:29:44;;;;;;;3.72;1.15;;;;;;;;;;5029381;28;20092;-69
2023/09/23 09:33:24;;;;;;;2.83;1.10;;;;;;;;;;5028106;28;20052;-68
2023/09/23 09:37:05;;;;;;;4.47;1.13;;;;;;;;;;5034121;28;20056;-69
2023/09/23 09:40:43;;;;;;;3.05;0.98;;;;;;;;;;5029426;28;20135;-70
2023/09/23 09:43:09;;;;;;;6.25;1.45;;;;;;;;;;5022271;28;20057;-69
2023/09/23 09:46:17;;;;;;;2.80;1.10;;;;;;;;;;5032857;28;20061;-72
2023/09/23 09:49:56;;;;;;;3.90;1.25;;;;;;;;;;5040652;28;20063;-72
2023/09/23 09:53:37;;;;;;;4.65;1.42;;;;;;;;;;5044439;28;20045;-73
2023/09/23 09:57:17;;;;;;;3.00;1.13;;;;;;;;;;5039896;28;20048;-72
2023/09/23 10:00:58;;;;;;;3.90;1.35;;;;;;;;;;5031916;28;20068;-73
2023/09/23 10:04:38;;;;;;;4.47;1.20;;;;;;;;;;5031607;28;20071;-67
2023/09/23 10:08:31;;;;;;;2.97;1.42;;;;;;;;;;5039468;28;20044;-73
2023/09/23 10:12:11;;;;;;;2.35;1.10;;;;;;;;;;5036853;28;20119;-73
2023/09/23 10:15:52;;;;;;;3.58;1.23;;;;;;;;;;5039562;28;20128;-70
2023/09/23 10:19:35;;;;;;;4.32;1.48;;;;;;;;;;5038722;28;20442;-74
2023/09/23 10:23:15;;;;;;;4.90;1.10;;;;;;;;;;5039839;28;20250;-75
2023/09/23 10:26:56;;;;;;;4.07;1.20;;;;;;;;;;5037387;28;20048;-74
2023/09/23 10:30:43;;;;;;;4.30;1.63;;;;;;;;;;5036108;28;20047;-74
2023/09/23 10:34:23;;;;;;;2.90;1.15;;;;;;;;;;5042156;28;20100;-74
2023/09/23 10:38:05;;;;;;;4.10;1.40;;;;;;;;;;5041593;28;20504;-76
2023/09/23 10:41:53;;;;;;;2.80;1.45;;;;;;;;;;5040319;28;20049;-74
2023/09/23 10:45:34;;;;;;;7.50;1.50;;;;;;;;;;5043072;28;20091;-72
2023/09/23 10:49:16;;;;;;;1.85;0.95;;;;;;;;;;5046004;28;20447;-74
2023/09/23 10:52:57;;;;;;;2.85;0.90;;;;;;;;;;5038484;28;20041;-72
2023/09/23 10:56:39;;;;;;;4.40;1.13;;;;;;;;;;5039716;28;20041;-73
2023/09/23 11:00:25;;;;;;;6.05;1.30;;;;;;;;;;5043829;28;20044;-74
2023/09/23 11:04:04;;;;;;;5.13;1.48;;;;;;;;;;5033113;28;20132;-70
2023/09/23 11:07:23;;;;;;;1.15;0.80;;;;;;;;;;5039661;28;20087;-72
2023/09/23 11:10:23;;;;;;;5.32;1.00;;;;;;;;;;5039148;28;20374;-72
2023/09/23 11:12:50;;;;;;;2.33;1.00;;;;;;;;;;5034874;28;20047;-70
2023/09/23 11:15:17;;;;;;;3.70;1.10;;;;;;;;;;5046071;28;20421;-69
2023/09/23 11:17:43;;;;;;;1.08;0.90;;;;;;;;;;5041517;28;20049;-68
2023/09/23 11:20:13;;;;;;;2.78;1.13;;;;;;;;;;5032739;28;20497;-70
2023/09/23 11:22:43;;;;;;;7.90;1.75;;;;;;;;;;5036400;28;20053;-70
2023/09/23 11:25:09;;;;;;;6.88;1.85;;;;;;;;;;5043084;28;20059;-68
2023/09/23 11:27:35;;;;;;;8.50;3.20;;;;;;;;;;5043430;28;20049;-70
2023/09/23 11:30:04;;;;;;;13.27;5.32;;;;;;;;;;5024624;28;20054;-71
2023/09/23 11:32:31;;;;;;;7.22;2.65;;;;;;;;;;5040817;28;20050;-69
2023/09/23 11:34:57;;;;;;;7.63;1.70;;;;;;;;;;5044358;28;20170;-70
2023/09/23 11:37:23;;;;;;;13.70;3.22;;;;;;;;;;5040067;28;20053;-71
2023/09/23 11:39:50;;;;;;;6.03;2.03;;;;;;;;;;5047689;28;20088;-72
2023/09/23 11:42:16;;;;;;;6.32;2.58;;;;;;;;;;5042252;28;20044;-70
2023/09/23 11:44:43;;;;;;;4.05;1.70;;;;;;;;;;5043980;28;20041;-73
2023/09/23 11:47:12;;;;;;;4.28;1.40;;;;;;;;;;5048364;28;20057;-70
2023/09/23 11:49:38;;;;;;;7.22;2.03;;;;;;;;;;5043685;28;20136;-72
2023/09/23 11:52:11;;;;;;;5.05;1.95;;;;;;;;;;5047837;28;20496;-72
2023/09/23 11:54:42;;;;;;;4.38;1.92;;;;;;;;;;5039103;28;20049;-71
2023/09/23 11:57:09;;;;;;;4.43;1.70;;;;;;;;;;5043702;28;20045;-73
2023/09/23 11:59:37;;;;;;;4.07;1.80;;;;;;;;;;5043137;28;20061;-71
2023/09/23 12:02:03;;;;;;;4.40;1.60;;;;;;;;;;5047770;28;20056;-72
2023/09/23 12:04:29;;;;;;;3.65;1.30;;;;;;;;;;5037838;28;20382;-73
2023/09/23 12:06:55;;;;;;;3.22;1.70;;;;;;;;;;5032603;28;20417;-72
2023/09/23 12:09:23;;;;;;;5.88;1.50;;;;;;;;;;5034987;28;20119;-72
2023/09/23 12:11:51;;;;;;;4.63;1.48;;;;;;;;;;5038223;28;20095;-72
2023/09/23 12:14:21;;;;;;;6.22;1.75;;;;;;;;;;5041033;28;20041;-73
2023/09/23 12:16:47;;;;;;;9.23;3.30;;;;;;;;;;5045986;28;20262;-70
2023/09/23 12:19:13;;;;;;;7.38;3.42;;;;;;;;;;5039521;28;20485;-71
2023/09/23 12:21:40;;;;;;;5.78;1.75;;;;;;;;;;5035514;28;20057;-73
2023/09/23 12:24:06;;;;;;;4.75;2.10;;;;;;;;;;5046354;28;20044;-68
2023/09/23 12:26:32;;;;;;;7.88;2.50;;;;;;;;;;5036254;28;21026;-67
2023/09/23 12:28:58;;;;;;;4.35;2.15;;;;;;;;;;5039595;28;20051;-68
2023/09/23 12:31:24;;;;;;;4.68;1.85;;;;;;;;;;5034132;28;20033;-69
2023/09/23 12:33:53;;;;;;;5.40;1.63;;;;;;;;;;5037862;28;20494;-68
2023/09/23 12:36:19;;;;;;;2.78;1.17;;;;;;;;;;5031010;28;20064;-66
2023/09/23 12:38:46;;;;;;;4.72;1.45;;;;;;;;;;5032739;28;20052;-71
2023/09/23 12:41:16;;;;;;;6.90;1.80;;;;;;;;;;5036574;28;20046;-71
2023/09/23 12:43:42;;;;;;;3.95;1.50;;;;;;;;;;5043108;28;20516;-72
2023/09/23 12:46:08;;;;;;;2.47;1.33;;;;;;;;;;5032687;28;20095;-71
2023/09/23 12:48:34;;;;;;;6.25;1.70;;;;;;;;;;5038673;28;20053;-74
2023/09/23 12:51:43;;;;;;;4.82;1.80;;;;;;;;;;5033811;28;20115;-72
2023/09/23 12:55:23;;;;;;;3.42;1.50;;;;;;;;;;5035701;28;20164;-71
2023/09/23 12:59:06;;;;;;;4.60;1.70;;;;;;;;;;5032744;28;20072;-71
2023/09/23 13:02:44;;;;;;;7.82;1.40;;;;;;;;;;5032889;28;20057;-71
2023/09/23 13:06:27;;;;;;;4.50;1.40;;;;;;;;;;5032199;28;20401;-74
2023/09/23 13:10:07;;;;;;;3.45;1.80;;;;;;;;;;5031617;28;20090;-71
2023/09/23 13:13:48;;;;;;;3.47;1.42;;;;;;;;;;5033770;28;20602;-72
2023/09/23 13:17:28;;;;;;;2.50;1.40;;;;;;;;;;5031676;28;20365;-76
2023/09/23 13:21:11;;;;;;;5.28;1.38;;;;;;;;;;5051476;28;20040;-75
2023/09/23 13:24:52;;;;;;;6.95;1.42;;;;;;;;;;5035881;28;20080;-74
2023/09/23 13:28:32;;;;;;;4.45;1.38;;;;;;;;;;5044769;28;20045;-75
2023/09/23 13:32:12;;;;;;;2.33;1.10;;;;;;;;;;5039649;28;20072;-73
2023/09/23 13:35:53;;;;;;;1.98;0.98;;;;;;;;;;5048656;28;20132;-69
2023/09/23 13:39:34;;;;;;;3.15;1.17;;;;;;;;;;5035917;28;20524;-74
2023/09/23 13:43:14;;;;;;;6.22;1.38;;;;;;;;;;5038351;28;20037;-72
2023/09/23 13:46:54;;;;;;;4.93;1.48;;;;;;;;;;5036748;28;20049;-75
2023/09/23 13:50:35;;;;;;;5.07;1.60;;;;;;;;;;5037236;28;20045;-73
2023/09/23 13:54:15;;;;;;;3.92;1.40;;;;;;;;;;5040954;28;20074;-73
2023/09/23 13:57:57;;;;;;;5.43;2.75;;;;;;;;;;5042723;28;20497;-78
2023/09/23 14:01:37;;;;;;;6.00;1.40;;;;;;;;;;5047703;28;20052;-71
2023/09/23 14:05:19;;;;;;;4.90;1.15;;;;;;;;;;5048772;28;20049;-78
2023/09/23 14:08:59;;;;;;;2.70;1.02;;;;;;;;;;5053985;28;20070;-81
2023/09/23 14:12:40;;;;;;;2.97;1.10;;;;;;;;;;5054190;28;20101;-80
2023/09/23 14:16:20;;;;;;;6.40;1.15;;;;;;;;;;5050506;28;20148;-77
2023/09/23 14:20:03;;;;;;;4.10;1.00;;;;;;;;;;5043597;28;20138;-78
2023/09/23 14:23:40;;;;;;;5.85;1.00;;;;;;;;;;5049648;28;20083;-73
2023/09/23 14:27:21;;;;;;;5.10;1.30;;;;;;;;;;5038860;28;20077;-78
2023/09/23 14:31:01;;;;;;;4.18;1.00;;;;;;;;;;5047714;28;20072;-77
2023/09/23 14:34:41;;;;;;;11.63;1.35;;;;;;;;;;5043741;28;20128;-74
2023/09/23 14:38:22;;;;;;;3.50;0.93;;;;;;;;;;5034248;28;20040;-73
2023/09/23 14:42:02;;;;;;;2.55;1.13;;;;;;;;;;5041745;28;20041;-74
2023/09/23 14:45:43;;;;;;;3.90;1.00;;;;;;;;;;5040076;28;20053;-74
2023/09/23 14:49:23;;;;;;;2.40;1.00;;;;;;;;;;5043735;28;20055;-73
2023/09/23 14:53:03;;;;;;;4.45;1.20;;;;;;;;;;5041292;28;20052;-73
2023/09/23 14:56:44;;;;;;;5.78;1.40;;;;;;;;;;5034802;28;20052;-73
2023/09/23 15:00:24;;;;;;;3.47;1.02;;;;;;;;;;5042012;28;20369;-71
2023/09/23 15:04:05;;;;;;;3.97;1.00;;;;;;;;;;5043984;28;20060;-73
2023/09/23 15:07:45;;;;;;;2.53;1.00;;;;;;;;;;5038936;28;20508;-73
2023/09/23 15:11:27;;;;;;;3.50;0.88;;;;;;;;;;5041921;28;20052;-74
2023/09/23 15:15:06;;;;;;;3.50;1.00;;;;;;;;;;5046095;28;20040;-73
2023/09/23 15:18:46;;;;;;;4.90;1.00;;;;;;;;;;5039079;28;20408;-75
2023/09/23 15:22:27;;;;;;;5.95;1.35;;;;;;;;;;5052546;28;20095;-72
2023/09/23 15:26:08;;;;;;;4.13;1.15;;;;;;;;;;5044808;28;20057;-73
2023/09/23 15:29:48;;;;;;;3.88;1.20;;;;;;;;;;5049955;28;20094;-73
2023/09/23 15:33:29;;;;;;;7.57;1.42;;;;;;;;;;5050425;28;20045;-73
2023/09/23 15:37:09;;;;;;;3.20;1.42;;;;;;;;;;5040050;28;20118;-71
2023/09/23 15:40:50;;;;;;;3.72;1.17;;;;;;;;;;5043482;28;20052;-74
2023/09/23 15:44:30;;;;;;;5.57;1.30;;;;;;;;;;5043580;28;20572;-73
2023/09/23 15:48:11;;;;;;;6.40;1.13;;;;;;;;;;5052004;28;20048;-73
2023/09/23 15:51:51;;;;;;;4.85;1.00;;;;;;;;;;5037912;28;20053;-74
2023/09/23 15:55:34;;;;;;;3.03;1.15;;;;;;;;;;5045370;28;20127;-73
2023/09/23 15:59:13;;;;;;;5.45;1.20;;;;;;;;;;5048573;28;20570;-72
2023/09/23 16:02:56;;;;;;;10.23;1.35;;;;;;;;;;5039450;28;20057;-69
2023/09/23 16:06:37;;;;;;;3.97;1.23;;;;;;;;;;5044216;28;20099;-74
2023/09/23 16:10:20;;;;;;;2.47;1.20;;;;;;;;;;5045375;28;20049;-72
2023/09/23 16:14:00;;;;;;;6.82;1.30;;;;;;;;;;5044946;28;20049;-73
2023/09/23 16:17:41;;;;;;;5.07;1.33;;;;;;;;;;5048695;28;20057;-74
2023/09/23 16:21:21;;;;;;;5.80;1.30;;;;;;;;;;5044097;28;20460;-73
2023/09/23 16:25:01;;;;;;;3.25;1.20;;;;;;;;;;5045744;28;20060;-76
2023/09/23 16:28:42;;;;;;;1.88;1.00;;;;;;;;;;5048158;28;20080;-73
2023/09/23 16:32:22;;;;;;;4.53;1.10;;;;;;;;;;5051216;28;20094;-73
2023/09/23 16:36:02;;;;;;;4.22;1.20;;;;;;;;;;5038457;28;20045;-72
2023/09/23 16:39:43;;;;;;;2.58;1.05;;;;;;;;;;5048293;28;20055;-72
2023/09/23 16:43:23;;;;;;;4.18;1.10;;;;;;;;;;5049530;28;20087;-72
2023/09/23 16:47:07;;;;;;;3.33;1.10;;;;;;;;;;5038257;28;20276;-72
2023/09/23 16:50:48;;;;;;;3.67;1.20;;;;;;;;;;5043356;28;20060;-74
2023/09/23 16:54:27;;;;;;;3.97;1.25;;;;;;;;;;5042377;28;20524;-72
2023/09/23 16:58:07;;;;;;;6.30;1.20;;;;;;;;;;5043130;28;20195;-72
2023/09/23 17:01:50;;;;;;;5.88;1.30;;;;;;;;;;5040211;28;20535;-73
2023/09/23 17:05:30;;;;;;;7.10;1.38;;;;;;;;;;5046060;28;20052;-73
2023/09/23 17:09:11;;;;;;;3.53;1.00;;;;;;;;;;5047487;28;20055;-72
2023/09/23 17:12:51;;;;;;;8.40;1.42;;;;;;;;;;5043483;28;20041;-69
2023/09/23 17:16:33;;;;;;;4.97;1.38;;;;;;;;;;5045622;28;20116;-63
2023/09/23 17:20:14;;;;;;;3.88;1.15;;;;;;;;;;5037599;28;20247;-73
2023/09/23 17:23:53;;;;;;;4.35;1.20;;;;;;;;;;5035498;28;21767;-72
2023/09/23 17:27:34;;;;;;;7.70;1.60;;;;;;;;;;5037680;28;20062;-76
2023/09/23 17:31:15;;;;;;;2.63;1.10;;;;;;;;;;5040268;28;20068;-78
2023/09/23 17:34:56;;;;;;;4.95;1.20;;;;;;;;;;5037649;28;20048;-76
2023/09/23 17:38:38;;;;;;;3.70;1.20;;;;;;;;;;5032717;28;20371;-74